WetterOnline ( https://www.wetteronline.de )

Wetter aktuell Norden

Aktuelles Wetter: Norderney (16m)

6-stündlich | Neueste Meldungen
Ortszeit Temperatur Wetter
So, 21.04. 2:00 1.9° C Sprühregen
Sa, 20.04. 20:00 7.1° C bedeckt
Sa, 20.04. 14:00 8.5° C wolkig
Sa, 20.04. 8:00 7.5° C leicht bewölkt
Sa, 20.04. 2:00 7.7° C bewölkt
Fr, 19.04. 20:00 8.2° C leicht bewölkt
Fr, 19.04. 14:00 8.8° C bewölkt
Fr, 19.04. 8:00 8.8° C bedeckt
Ortszeit Temperatur Wetter
So, 21.04. 5:40 4.7° C leichter Regen
So, 21.04. 5:30 4.9° C leichter Regen
So, 21.04. 5:20 4.9° C leichter Regen
So, 21.04. 5:10 5.0° C wolkig
So, 21.04. 5:00 5.1° C wolkig
So, 21.04. 4:50 5.1° C wolkig
So, 21.04. 4:30 4.0° C wolkig
So, 21.04. 4:00 5.2° C leicht bewölkt
So, 21.04. 3:30 4.9° C leicht bewölkt
So, 21.04. 3:00 3.6° C bewölkt
Ortszeit Relative Feuchte Sichtweite
So, 21.04. 2:00 91% 26 km
Sa, 20.04. 20:00 65% 16 km
Sa, 20.04. 14:00 66% 40 km
Sa, 20.04. 8:00 64% 26 km
Sa, 20.04. 2:00 62% 30 km
Fr, 19.04. 20:00 72% 18 km
Fr, 19.04. 14:00 71% 18 km
Fr, 19.04. 8:00 74% 18 km
Ortszeit Relative Feuchte Sichtweite
So, 21.04. 5:40 80% -
So, 21.04. 5:30 78% 14 km
So, 21.04. 5:20 78% -
So, 21.04. 5:10 77% -
So, 21.04. 5:00 76% 30 km
So, 21.04. 4:50 76% -
So, 21.04. 4:30 81% 35 km
So, 21.04. 4:00 70% 45 km
So, 21.04. 3:30 76% 30 km
So, 21.04. 3:00 87% 40 km
Ortszeit Niederschlagsmenge Niederschlagsart
So, 21.04. 2:00 6 l/m2 in 6 Std. Regen
Sa, 20.04. 20:00 1 l/m2 in 12 Std. Regen
Sa, 20.04. 14:00 0.9 l/m2 in 6 Std. Regen
Sa, 20.04. 8:00 0.1 l/m2 in 12 Std. Regen
Sa, 20.04. 2:00 0.0 l/m2 in 6 Std. -
Fr, 19.04. 20:00 0.4 l/m2 in 12 Std. Regen
Fr, 19.04. 14:00 0.1 l/m2 in 6 Std. Regen
Fr, 19.04. 8:00 6 l/m2 in 12 Std. Regen
Ortszeit Niederschlagsmenge Niederschlagsart
So, 21.04. 5:40 keine Meldung -
So, 21.04. 5:30 <0.05 l/m2 in 30 Min -
So, 21.04. 5:20 keine Meldung -
So, 21.04. 5:10 keine Meldung -
So, 21.04. 5:00 0.0 l/m2 in 1 Std. Sprühregen
So, 21.04. 4:50 keine Meldung -
So, 21.04. 4:30 0.0 l/m2 in 30 Min -
So, 21.04. 4:00 0.0 l/m2 in 1 Std. -
So, 21.04. 3:30 0.0 l/m2 in 30 Min -
So, 21.04. 3:00 <0.05 l/m2 in 1 Std. Sprühregen
Ortszeit Stärke Spitze Richtung
km/h Bft. km/h Grad Sektor
So, 21.04. 2:00 11 2 72 100° O
Sa, 20.04. 20:00 50 7 61 340° N
Sa, 20.04. 14:00 14 3 40 330° NW
Sa, 20.04. 8:00 33 5 56 360° N
Sa, 20.04. 2:00 44 6 72 350° N
Fr, 19.04. 20:00 58 7 79 350° N
Fr, 19.04. 14:00 61 7 79 310° NW
Fr, 19.04. 8:00 43 6 61 300° NW
Ortszeit Stärke Spitze Richtung
km/h Bft. km/h Grad Sektor
So, 21.04. 5:40 22 4 - 50° NO
So, 21.04. 5:30 24 4 33 50° NO
So, 21.04. 5:20 24 4 - 50° NO
So, 21.04. 5:10 25 4 - 50° NO
So, 21.04. 5:00 26 4 39 50° NO
So, 21.04. 4:50 26 4 - 50° NO
So, 21.04. 4:30 13 3 33 90° O
So, 21.04. 4:00 24 4 46 60° NO
So, 21.04. 3:30 33 5 46 50° NO
So, 21.04. 3:00 11 2 36 100° O
Ortszeit Untergrenze Bedeckung Gattung
total tief tief mittel hoch
So, 21.04. 2:00 240 m 8/8 8/8 - - -
Sa, 20.04. 20:00 810 m 8/8 8/8 - - -
Sa, 20.04. 14:00 2100 m 5/8 5/8 - - -
Sa, 20.04. 8:00 1470 m 5/8 2/8 - - -
Sa, 20.04. 2:00 1080 m 7/8 7/8 - - -
Fr, 19.04. 20:00 660 m 3/8 3/8 - - -
Fr, 19.04. 14:00 750 m 7/8 7/8 - - -
Fr, 19.04. 8:00 750 m 8/8 8/8 - - -
Ortszeit Bedeckungsgrad in Achtel und Wolkenuntergrenze
So, 21.04. 5:40 8
So, 21.04. 5:30 1(570m) 5(840m) 6(1050m)
So, 21.04. 5:20 1(570m) 5(840m) 6(1050m)
So, 21.04. 5:10 5
So, 21.04. 5:00 4(630m) 5(810m) 6(960m)
So, 21.04. 4:50 4(630m) 5(810m) 6(960m)
So, 21.04. 4:30 4(750m) 5(930m)
So, 21.04. 4:00 2(840m) 3(1500m)
So, 21.04. 3:30 1(510m) 3(1200m)
So, 21.04. 3:00 3(480m) 5(690m) 7(1020m)
Ortszeit Luftdruck NN (hPa) Tendenz (hPa in 3 Std.)
So, 21.04. 2:00 1019 - 1,1
Sa, 20.04. 20:00 1020 + 0,4
Sa, 20.04. 14:00 1020 + 0,9
Sa, 20.04. 8:00 1017 + 1,9
Sa, 20.04. 2:00 1013 + 1,8
Fr, 19.04. 20:00 1008 + 4,1
Fr, 19.04. 14:00 1003 - 0,4
Fr, 19.04. 8:00 1004 - 1,0
Ortszeit Luftdruck NN (hPa) Tendenz (hPa in 3 Std.)
So, 21.04. 5:40 1022 keine Meldung
So, 21.04. 5:30 1022 + 2,4
So, 21.04. 5:20 1022 keine Meldung
So, 21.04. 5:10 1022 keine Meldung
So, 21.04. 5:00 1022 + 2,4
So, 21.04. 4:50 1022 keine Meldung
So, 21.04. 4:30 1021 + 2,3
So, 21.04. 4:00 1021 + 1,9
So, 21.04. 3:30 1020 + 1,1
So, 21.04. 3:00 1020 + 0,1
Ortszeit Schneehöhe (cm)
So, 21.04. 2:00 0
Sa, 20.04. 20:00 0
Sa, 20.04. 14:00 0
Sa, 20.04. 8:00 0
Sa, 20.04. 2:00 0
Fr, 19.04. 20:00 0
Fr, 19.04. 14:00 0
Fr, 19.04. 8:00 0
Ortszeit Schneehöhe (cm)
So, 21.04. 5:40 -
So, 21.04. 5:30 0
So, 21.04. 5:20 0
So, 21.04. 5:10 -
So, 21.04. 5:00 0
So, 21.04. 4:50 0
So, 21.04. 4:30 0
So, 21.04. 4:00 0
So, 21.04. 3:30 0
So, 21.04. 3:00 0
Link zu dieser Seite / Seite empfehlen

Das Wetter in ...